createdAt,value
2018-09-06T00:02:09.883Z,9.30
2018-09-06T00:04:38.995Z,9.40
2018-09-06T00:07:08.018Z,11.67
2018-09-06T00:09:37.237Z,9.57
2018-09-06T00:12:06.386Z,11.17
2018-09-06T00:14:35.640Z,12.07
2018-09-06T00:17:04.850Z,9.03
2018-09-06T00:19:33.869Z,12.03
2018-09-06T00:22:02.887Z,9.47
2018-09-06T00:24:32.164Z,9.43
2018-09-06T00:27:01.403Z,8.83
2018-09-06T00:29:36.995Z,11.43
2018-09-06T00:32:06.283Z,9.80
2018-09-06T00:34:35.492Z,11.63
2018-09-06T00:37:04.503Z,10.83
2018-09-06T00:39:33.698Z,10.40
2018-09-06T00:42:02.719Z,11.63
2018-09-06T00:44:31.791Z,11.83
2018-09-06T00:47:00.876Z,11.27
2018-09-06T00:49:29.989Z,9.07
2018-09-06T00:51:59.089Z,11.93
2018-09-06T00:54:28.323Z,12.97
2018-09-06T00:56:57.716Z,9.30
2018-09-06T00:59:27.032Z,11.63
2018-09-06T01:01:56.490Z,11.10
2018-09-06T01:04:25.745Z,11.97
2018-09-06T01:06:55.040Z,14.03
2018-09-06T01:09:24.232Z,13.47
2018-09-06T01:11:53.234Z,10.60
2018-09-06T01:14:22.261Z,12.17
2018-09-06T01:16:51.304Z,10.40
2018-09-06T01:19:20.312Z,11.73
2018-09-06T01:21:49.358Z,11.63
2018-09-06T01:24:18.400Z,11.30
2018-09-06T01:26:47.399Z,13.53
2018-09-06T01:29:16.766Z,10.53
2018-09-06T01:31:45.756Z,13.87
2018-09-06T01:34:14.773Z,11.17
2018-09-06T01:36:46.690Z,12.20
2018-09-06T01:39:16.721Z,11.77
2018-09-06T01:41:45.858Z,13.63
2018-09-06T01:44:15.318Z,13.50
2018-09-06T01:46:44.575Z,9.90
2018-09-06T01:49:13.591Z,11.03
2018-09-06T01:51:43.002Z,12.47
2018-09-06T01:54:12.255Z,12.90
2018-09-06T01:56:41.321Z,12.77
2018-09-06T01:59:13.050Z,13.57
2018-09-06T02:01:42.307Z,13.57
2018-09-06T02:04:11.315Z,12.17
2018-09-06T02:06:40.426Z,14.17
2018-09-06T02:09:10.397Z,12.80
2018-09-06T02:11:40.367Z,12.87
2018-09-06T02:14:09.579Z,10.80
2018-09-06T02:16:38.583Z,12.03
2018-09-06T02:19:07.598Z,14.53
2018-09-06T02:21:36.807Z,11.13
2018-09-06T02:24:06.118Z,12.20
2018-09-06T02:26:35.148Z,12.53
2018-09-06T02:29:04.162Z,13.13
2018-09-06T02:31:33.308Z,13.33
2018-09-06T02:34:02.620Z,15.57
2018-09-06T02:36:31.903Z,14.43
2018-09-06T02:39:00.954Z,11.90
2018-09-06T02:41:29.990Z,13.20
2018-09-06T02:43:59.023Z,12.37
2018-09-06T02:46:28.041Z,15.00
2018-09-06T02:48:57.070Z,13.50
2018-09-06T02:51:26.171Z,12.70
2018-09-06T02:53:55.268Z,14.80
2018-09-06T02:56:24.477Z,13.43
2018-09-06T02:58:53.694Z,14.57
2018-09-06T03:01:22.723Z,13.03
2018-09-06T03:03:51.934Z,14.10
2018-09-06T03:06:20.995Z,13.80
2018-09-06T03:08:50.004Z,14.07
2018-09-06T03:11:24.869Z,15.87
2018-09-06T03:13:54.180Z,14.77
2018-09-06T03:16:23.660Z,15.37
2018-09-06T03:18:52.893Z,14.80
2018-09-06T03:21:22.067Z,17.27
2018-09-06T03:23:51.070Z,13.13
2018-09-06T03:26:20.809Z,13.80
2018-09-06T03:28:50.936Z,18.13
2018-09-06T03:31:19.960Z,14.20
2018-09-06T03:33:49.108Z,13.40
2018-09-06T03:36:18.173Z,14.20
2018-09-06T03:38:47.198Z,15.87
2018-09-06T03:41:16.225Z,16.37
2018-09-06T03:43:45.222Z,15.63
2018-09-06T03:46:14.223Z,15.77
2018-09-06T03:48:43.449Z,18.73
2018-09-06T03:51:12.445Z,15.80
2018-09-06T03:53:41.500Z,13.77
2018-09-06T03:56:10.583Z,15.70
2018-09-06T03:58:39.605Z,16.93
2018-09-06T04:01:08.599Z,15.93
2018-09-06T04:03:37.778Z,16.43
2018-09-06T04:06:06.790Z,18.60
2018-09-06T04:08:35.846Z,16.37
2018-09-06T04:11:04.854Z,15.40
2018-09-06T04:13:33.898Z,15.60
2018-09-06T04:16:02.910Z,14.20
2018-09-06T04:18:32.118Z,15.77
2018-09-06T04:21:01.131Z,17.17
2018-09-06T04:23:30.178Z,15.47
2018-09-06T04:25:59.228Z,15.20
2018-09-06T04:28:28.352Z,17.17
2018-09-06T04:30:57.349Z,16.77
2018-09-06T04:33:26.650Z,18.40
2018-09-06T04:35:55.791Z,18.07
2018-09-06T04:38:25.042Z,18.90
2018-09-06T04:40:54.083Z,21.83
2018-09-06T04:43:23.107Z,17.03
2018-09-06T04:45:52.194Z,16.53
2018-09-06T04:48:21.214Z,18.47
2018-09-06T04:50:50.226Z,16.30
2018-09-06T04:53:19.452Z,20.87
2018-09-06T04:55:48.656Z,17.63
2018-09-06T04:58:17.710Z,21.83
2018-09-06T05:00:46.981Z,19.93
2018-09-06T05:03:16.168Z,19.13
2018-09-06T05:05:45.167Z,19.30
2018-09-06T05:08:15.081Z,18.20
2018-09-06T05:10:44.428Z,20.60
2018-09-06T05:13:13.429Z,17.23
2018-09-06T05:15:42.702Z,20.50
2018-09-06T05:18:11.967Z,21.77
2018-09-06T05:20:40.985Z,16.63
2018-09-06T05:23:09.988Z,24.93
2018-09-06T05:25:39.049Z,22.67
2018-09-06T05:28:08.274Z,36.63
2018-09-06T05:30:37.328Z,20.07
2018-09-06T05:33:06.394Z,26.50
2018-09-06T05:35:35.503Z,18.73
2018-09-06T05:38:04.590Z,18.63
2018-09-06T05:40:33.610Z,18.50
2018-09-06T05:43:02.646Z,21.43
2018-09-06T05:45:31.648Z,18.47
2018-09-06T05:48:00.972Z,22.63
2018-09-06T05:50:31.078Z,18.87
2018-09-06T05:53:01.973Z,22.53
2018-09-06T05:55:31.597Z,24.33
2018-09-06T05:58:00.869Z,19.37
2018-09-06T06:00:35.354Z,31.33
2018-09-06T06:03:06.317Z,20.57
2018-09-06T06:05:35.517Z,19.43
2018-09-06T06:28:00.876Z,22.77
2018-09-06T06:30:29.949Z,22.00
2018-09-06T06:32:58.918Z,25.30
2018-09-06T06:35:27.943Z,23.90
2018-09-06T06:37:56.952Z,25.23
2018-09-06T06:40:25.965Z,19.17
2018-09-06T06:42:54.925Z,21.27
2018-09-06T06:45:24.106Z,22.07
2018-09-06T06:47:53.171Z,27.17
2018-09-06T06:50:22.331Z,22.23
2018-09-06T06:52:51.333Z,24.90
2018-09-06T06:55:20.332Z,20.13
2018-09-06T06:57:49.586Z,24.27
2018-09-06T07:00:20.857Z,23.33
2018-09-06T07:02:50.978Z,20.40
2018-09-06T07:05:20.044Z,23.40
2018-09-06T07:07:49.456Z,24.20
2018-09-06T07:10:18.811Z,25.97
2018-09-06T07:12:47.922Z,24.73
2018-09-06T07:15:16.951Z,22.17
2018-09-06T07:17:46.044Z,22.93
2018-09-06T07:20:15.113Z,24.67
2018-09-06T07:22:44.193Z,21.53
2018-09-06T07:25:13.318Z,21.10
2018-09-06T07:27:42.522Z,21.10
2018-09-06T07:30:11.552Z,26.97
2018-09-06T07:32:40.722Z,20.37
2018-09-06T07:35:09.783Z,29.90
2018-09-06T07:37:38.789Z,26.87
2018-09-06T07:40:08.049Z,22.03
2018-09-06T07:42:37.131Z,23.37
2018-09-06T07:45:06.160Z,25.43
2018-09-06T07:47:35.385Z,21.47
2018-09-06T07:50:04.513Z,22.20
2018-09-06T07:52:33.511Z,21.27
2018-09-06T07:55:02.911Z,24.07
2018-09-06T07:57:32.117Z,22.13
2018-09-06T08:00:01.186Z,20.93
2018-09-06T08:02:30.245Z,19.27
2018-09-06T08:04:59.544Z,20.33
2018-09-06T08:07:28.839Z,21.57
2018-09-06T08:09:58.038Z,18.87
2018-09-06T08:12:27.168Z,18.23
2018-09-06T08:14:56.187Z,18.40
2018-09-06T08:17:25.242Z,18.60
2018-09-06T08:19:54.259Z,17.37
2018-09-06T08:22:23.360Z,18.87
2018-09-06T08:24:52.372Z,19.33
2018-09-06T08:27:21.612Z,16.57
2018-09-06T08:29:50.986Z,23.53
2018-09-06T08:32:20.416Z,19.27
2018-09-06T08:34:49.580Z,17.83
2018-09-06T08:37:18.787Z,19.20
2018-09-06T08:39:47.862Z,19.07
2018-09-06T08:42:17.261Z,16.93
2018-09-06T08:44:46.498Z,19.53
2018-09-06T08:47:16.010Z,15.43
2018-09-06T08:49:45.038Z,17.07
2018-09-06T08:52:14.084Z,22.93
2018-09-06T08:54:43.252Z,17.53
2018-09-06T08:57:12.330Z,18.80
2018-09-06T08:59:41.486Z,16.83
2018-09-06T09:02:12.580Z,21.97
2018-09-06T09:04:41.745Z,15.00
2018-09-06T09:07:10.902Z,17.03
2018-09-06T09:09:39.957Z,19.03
2018-09-06T09:12:08.959Z,14.03
2018-09-06T09:14:38.041Z,17.20
2018-09-06T09:17:07.043Z,14.40
2018-09-06T09:19:36.083Z,15.27
2018-09-06T09:22:05.264Z,17.50
2018-09-06T09:24:34.608Z,14.80
2018-09-06T09:27:03.623Z,14.43
2018-09-06T09:29:32.623Z,13.50
2018-09-06T09:32:01.779Z,15.07
2018-09-06T09:34:30.815Z,19.63
2018-09-06T09:36:59.834Z,17.60
2018-09-06T09:39:28.880Z,15.63
2018-09-06T09:41:58.186Z,16.43
2018-09-06T09:44:27.216Z,14.60
2018-09-06T09:49:24.671Z,13.47
2018-09-06T09:51:53.900Z,14.17
2018-09-06T09:54:22.948Z,13.03
2018-09-06T09:56:51.980Z,12.30
2018-09-06T09:59:20.968Z,14.93
2018-09-06T10:01:55.464Z,14.63
2018-09-06T10:04:29.760Z,15.60
2018-09-06T10:07:04.268Z,11.03
2018-09-06T10:09:33.355Z,15.43
2018-09-06T10:12:02.398Z,12.47
2018-09-06T10:14:31.652Z,16.90
2018-09-06T10:17:00.888Z,10.47
2018-09-06T10:19:30.152Z,12.57
2018-09-06T10:21:59.253Z,12.40
2018-09-06T10:24:28.239Z,12.50
2018-09-06T10:26:57.504Z,11.60
2018-09-06T10:29:26.491Z,13.33
2018-09-06T10:31:55.610Z,10.63
2018-09-06T10:34:24.628Z,9.57
2018-09-06T10:36:53.659Z,10.40
2018-09-06T10:39:22.857Z,10.83
2018-09-06T10:41:52.043Z,10.73
2018-09-06T10:44:21.038Z,19.03
2018-09-06T10:46:50.061Z,13.07
2018-09-06T10:49:19.317Z,11.60
2018-09-06T10:51:48.305Z,13.33
2018-09-06T10:54:17.833Z,12.87
2018-09-06T10:56:46.874Z,12.03
2018-09-06T10:59:15.963Z,11.03
2018-09-06T11:01:45.005Z,15.27
2018-09-06T11:04:14.020Z,11.93
2018-09-06T11:06:43.196Z,11.67
2018-09-06T11:09:12.212Z,11.83
2018-09-06T11:11:41.404Z,10.87
2018-09-06T11:14:10.878Z,9.97
2018-09-06T11:16:39.909Z,12.00
2018-09-06T11:19:08.919Z,11.43
2018-09-06T11:21:38.036Z,15.03
2018-09-06T11:24:07.559Z,10.83
2018-09-06T11:26:36.771Z,12.50
2018-09-06T11:29:05.813Z,9.00
2018-09-06T11:31:34.832Z,13.60
2018-09-06T11:34:04.041Z,11.13
2018-09-06T11:36:33.116Z,11.43
2018-09-06T11:39:02.125Z,13.77
2018-09-06T11:41:31.521Z,9.47
2018-09-06T11:44:00.588Z,7.30
2018-09-06T11:46:29.610Z,10.07
2018-09-06T11:48:58.643Z,11.47
2018-09-06T11:51:27.768Z,9.47
2018-09-06T11:53:57.121Z,10.60
2018-09-06T11:56:26.326Z,12.10
2018-09-06T11:58:55.527Z,14.27
2018-09-06T12:01:24.585Z,11.00
2018-09-06T12:03:53.639Z,10.77
2018-09-06T12:06:22.690Z,9.67
2018-09-06T12:08:51.822Z,9.07
2018-09-06T12:11:20.919Z,9.07
2018-09-06T12:13:50.230Z,7.93
2018-09-06T12:16:19.310Z,9.30
2018-09-06T12:18:48.770Z,8.23
2018-09-06T12:21:18.007Z,12.70
2018-09-06T12:23:47.005Z,10.23
2018-09-06T12:26:16.202Z,20.30
2018-09-06T12:28:45.215Z,11.63
2018-09-06T12:31:14.241Z,10.10
2018-09-06T12:33:43.371Z,9.30
2018-09-06T12:36:12.338Z,14.23
2018-09-06T12:38:41.628Z,10.27
2018-09-06T12:41:10.731Z,12.30
2018-09-06T12:43:39.901Z,11.90
2018-09-06T12:46:08.888Z,12.47
2018-09-06T12:48:37.922Z,9.83
2018-09-06T12:51:07.047Z,10.33
2018-09-06T12:53:36.091Z,9.80
2018-09-06T12:56:05.076Z,9.07
2018-09-06T12:58:34.217Z,10.57
2018-09-06T13:01:03.186Z,8.77
2018-09-06T13:03:32.331Z,15.43
2018-09-06T13:06:01.635Z,8.80
2018-09-06T13:08:30.648Z,12.63
2018-09-06T13:10:59.836Z,11.07
2018-09-06T13:13:28.834Z,13.77
2018-09-06T13:15:58.094Z,10.87
2018-09-06T13:18:27.542Z,11.83
2018-09-06T13:20:56.506Z,12.53
2018-09-06T13:23:25.756Z,10.70
2018-09-06T13:25:54.770Z,10.80
2018-09-06T13:28:23.806Z,8.10
2018-09-06T13:30:52.858Z,8.67
2018-09-06T13:33:21.924Z,7.67
2018-09-06T13:35:51.063Z,9.50
2018-09-06T13:38:20.096Z,8.97
2018-09-06T13:40:49.089Z,12.23
2018-09-06T13:43:18.104Z,8.23
2018-09-06T13:45:47.430Z,7.37
2018-09-06T13:48:16.873Z,9.63
2018-09-06T13:50:46.146Z,7.63
2018-09-06T13:53:15.191Z,7.90
2018-09-06T13:55:44.487Z,10.07
2018-09-06T13:58:13.482Z,6.60
2018-09-06T14:00:42.495Z,9.07
2018-09-06T14:03:11.522Z,9.37
2018-09-06T14:05:40.549Z,12.13
2018-09-06T14:08:09.859Z,12.63
2018-09-06T14:10:39.133Z,11.97
2018-09-06T14:13:08.407Z,11.10
2018-09-06T14:15:37.434Z,8.83
2018-09-06T14:18:06.439Z,7.57
2018-09-06T14:20:35.525Z,11.13
2018-09-06T14:23:04.542Z,8.03
2018-09-06T14:25:33.560Z,10.27
2018-09-06T14:28:02.541Z,12.53
2018-09-06T14:30:31.548Z,11.30
2018-09-06T14:33:00.539Z,12.83
2018-09-06T14:35:29.625Z,12.60
2018-09-06T14:37:58.634Z,9.87
2018-09-06T14:40:27.638Z,10.77
2018-09-06T14:42:56.698Z,11.57
2018-09-06T14:45:25.719Z,10.23
2018-09-06T14:47:54.925Z,14.37
2018-09-06T14:50:23.948Z,9.57
2018-09-06T14:52:52.960Z,11.43
2018-09-06T14:55:22.113Z,11.10
2018-09-06T14:57:51.147Z,10.07
2018-09-06T15:00:20.141Z,7.20
2018-09-06T15:02:49.267Z,9.67
2018-09-06T15:05:18.488Z,9.83
2018-09-06T15:07:47.890Z,10.87
2018-09-06T15:10:17.139Z,12.63
2018-09-06T15:12:46.151Z,13.60
2018-09-06T15:15:15.154Z,10.13
2018-09-06T15:17:44.235Z,10.03
2018-09-06T15:20:13.288Z,12.37
2018-09-06T15:22:42.550Z,9.27
2018-09-06T15:25:11.535Z,8.47
2018-09-06T15:27:40.532Z,8.70
2018-09-06T15:30:09.763Z,10.63
2018-09-06T15:32:38.751Z,11.53
2018-09-06T15:35:07.999Z,10.97
2018-09-06T15:37:37.078Z,8.47
2018-09-06T15:40:08.280Z,10.97
2018-09-06T15:42:38.885Z,8.80
2018-09-06T15:45:08.270Z,7.83
2018-09-06T15:47:38.568Z,8.93
2018-09-06T15:50:08.204Z,12.63
2018-09-06T15:52:37.281Z,9.60
2018-09-06T15:55:06.516Z,11.83
2018-09-06T15:57:35.975Z,7.60
2018-09-06T16:00:05.360Z,12.93
2018-09-06T16:02:35.604Z,10.57
2018-09-06T16:05:06.143Z,7.57
2018-09-06T16:07:35.307Z,11.33
2018-09-06T16:10:04.297Z,8.30
2018-09-06T16:12:33.867Z,10.03
2018-09-06T16:15:02.930Z,10.80
2018-09-06T16:17:33.484Z,7.83
2018-09-06T16:20:03.181Z,11.90
2018-09-06T16:22:32.529Z,9.40
2018-09-06T16:25:01.843Z,13.40
2018-09-06T16:27:31.784Z,10.60
2018-09-06T16:30:01.133Z,9.43
2018-09-06T16:32:30.246Z,12.03
2018-09-06T16:34:59.859Z,13.67
2018-09-06T16:37:29.869Z,9.80
2018-09-06T16:39:59.635Z,12.40
2018-09-06T16:42:29.350Z,10.43
2018-09-06T16:51:56.740Z,9.20
2018-09-06T16:54:25.997Z,20.17
2018-09-06T16:56:55.451Z,11.47
2018-09-06T16:59:25.225Z,10.30
2018-09-06T17:01:54.310Z,12.03
2018-09-06T17:04:23.389Z,8.97
2018-09-06T17:06:52.437Z,10.13
2018-09-06T17:09:21.753Z,10.47
2018-09-06T17:11:51.288Z,10.73
2018-09-06T17:14:20.500Z,8.77
2018-09-06T17:16:49.823Z,10.37
2018-09-06T17:19:18.854Z,7.53
2018-09-06T17:21:48.039Z,8.23
2018-09-06T17:24:17.060Z,7.93
2018-09-06T17:26:46.567Z,14.13
2018-09-06T17:29:16.914Z,8.00
2018-09-06T17:31:45.993Z,11.97
2018-09-06T17:34:15.971Z,9.63
2018-09-06T17:36:45.450Z,10.70
2018-09-06T17:39:16.077Z,9.77
2018-09-06T17:41:45.803Z,9.30
2018-09-06T17:44:16.111Z,10.43
2018-09-06T17:46:45.815Z,13.67
2018-09-06T17:49:16.340Z,13.60
2018-09-06T17:51:47.404Z,13.00
2018-09-06T17:54:17.630Z,8.80
2018-09-06T17:56:48.751Z,10.00
2018-09-06T17:59:18.987Z,9.07
2018-09-06T18:01:48.274Z,9.47
2018-09-06T18:04:17.285Z,9.40
2018-09-06T18:06:46.923Z,9.43
2018-09-06T18:09:16.484Z,9.87
2018-09-06T18:11:46.811Z,11.83
2018-09-06T18:14:17.130Z,10.47
2018-09-06T18:16:48.123Z,10.43
2018-09-06T18:19:17.173Z,11.77
2018-09-06T18:21:46.832Z,11.60
2018-09-06T18:24:16.937Z,13.20
2018-09-06T18:26:46.884Z,14.47
2018-09-06T18:29:16.369Z,14.23
2018-09-06T18:31:45.515Z,9.03
2018-09-06T18:34:15.290Z,12.67
2018-09-06T18:36:45.126Z,10.50
2018-09-06T18:39:15.392Z,10.90
2018-09-06T18:41:44.548Z,11.53
2018-09-06T18:44:13.868Z,12.67
2018-09-06T18:46:44.158Z,10.50
2018-09-06T18:49:14.212Z,11.83
2018-09-06T18:51:44.159Z,11.30
2018-09-06T18:54:14.490Z,12.20
2018-09-06T18:56:43.622Z,13.73
2018-09-06T18:59:12.665Z,13.03
2018-09-06T19:01:41.965Z,9.80
2018-09-06T19:04:11.063Z,13.40
2018-09-06T19:06:40.698Z,12.57
2018-09-06T19:09:12.499Z,13.10
2018-09-06T19:11:42.258Z,11.53
2018-09-06T19:14:12.295Z,15.57
2018-09-06T19:16:42.320Z,9.63
2018-09-06T19:19:12.873Z,11.87
2018-09-06T19:21:42.388Z,11.90
2018-09-06T19:24:11.683Z,12.53
2018-09-06T19:26:41.516Z,10.57
2018-09-06T19:29:11.050Z,10.13
2018-09-06T19:31:40.537Z,12.37
2018-09-06T19:34:12.103Z,12.13
2018-09-06T19:36:44.072Z,12.00
2018-09-06T19:39:13.946Z,12.50
2018-09-06T19:41:43.829Z,11.97
2018-09-06T19:44:14.580Z,8.80
2018-09-06T19:46:44.932Z,14.10
2018-09-06T19:49:15.428Z,11.10
2018-09-06T19:51:44.764Z,8.60
2018-09-06T19:54:14.234Z,9.27
2018-09-06T19:56:43.387Z,12.20
2018-09-06T19:59:12.425Z,8.37
2018-09-06T20:01:41.690Z,18.33
2018-09-06T20:04:10.991Z,13.63
2018-09-06T20:06:40.193Z,11.87
2018-09-06T20:09:09.748Z,8.90
2018-09-06T20:11:40.658Z,13.40
2018-09-06T20:14:09.983Z,11.40
2018-09-06T20:16:39.059Z,12.27
2018-09-06T20:19:08.078Z,12.50
2018-09-06T20:21:37.307Z,13.30
2018-09-06T20:24:06.550Z,9.73
2018-09-06T20:26:35.668Z,12.53
2018-09-06T20:29:04.759Z,12.83
2018-09-06T20:31:33.883Z,12.77
2018-09-06T20:34:03.077Z,10.83
2018-09-06T20:36:32.377Z,8.53
2018-09-06T20:39:01.604Z,12.07
2018-09-06T20:41:30.717Z,16.83
2018-09-06T20:43:59.879Z,14.37
2018-09-06T20:46:28.986Z,11.70
2018-09-06T20:48:57.990Z,8.90
2018-09-06T20:51:27.159Z,10.40
2018-09-06T20:53:56.384Z,13.63
2018-09-06T20:56:25.395Z,12.90
2018-09-06T20:58:55.935Z,11.30
2018-09-06T21:01:25.128Z,13.07
2018-09-06T21:03:54.258Z,9.63
2018-09-06T21:06:23.317Z,11.77
2018-09-06T21:08:52.533Z,11.40
2018-09-06T23:03:21.655Z,13.40
